Pictou, Canada
Current Conditions -  °F | °C
As of 11:00 PM on Monday 20 Oct 2014 (Local Time) from CYYG Reporting Station
Scattered Clouds Scattered Clouds  
Wind Chill:   Ceiling: Unl
Heat Index:   Visibility: 15mi
Dew Point: -1°   Wind: 9mph
Humidity: 65%   Direction: 260°W
Pressure: 29.9"   Gusts: NA
Location:  45.67°N, 62.7°W
Report Text: CYYG 210200Z 26008KT 15SM SCT045 05/M01 A2990 RMK SC4 SLP126
Loading
Personal Weather Stations






























Interactive Weather Map
Tropical Storm Tracking
New forecast layout! Learn more

10-Day Weather Forecast

Advertisements
Track Severe Weather on mobile